Time;durP1;ratioP1;P1;durP2;ratioP2;P2;SDS_P1;SDS_P2;PMS_P1;PMS_P2;Temp;Humidity;BMP_temperature;BMP_pressure;BME280_temperature;BME280_humidity;BME280_pressure;Samples;Min_cycle;Max_cycle;Signal;HPM_P1;HPM_P2
2021/12/30 00:01:16;;;;;;;83.20;40.13;;;;;;;;;;5035324;28;20057;-67
2021/12/30 00:03:43;;;;;;;87.35;42.90;;;;;;;;;;5034840;28;20034;-67
2021/12/30 00:06:09;;;;;;;82.95;41.70;;;;;;;;;;5035034;28;20393;-66
2021/12/30 00:08:35;;;;;;;89.78;41.40;;;;;;;;;;5043641;28;20076;-66
2021/12/30 00:11:01;;;;;;;71.75;38.42;;;;;;;;;;5054430;28;20056;-67
2021/12/30 00:13:28;;;;;;;76.03;37.03;;;;;;;;;;5054369;28;20043;-67
2021/12/30 00:15:54;;;;;;;85.07;38.15;;;;;;;;;;5048560;28;20029;-66
2021/12/30 00:18:20;;;;;;;87.60;37.03;;;;;;;;;;5037134;28;20030;-67
2021/12/30 00:20:46;;;;;;;63.10;33.25;;;;;;;;;;5036350;28;20056;-67
2021/12/30 00:23:12;;;;;;;59.38;32.00;;;;;;;;;;5049769;28;20068;-66
2021/12/30 00:25:41;;;;;;;60.25;34.53;;;;;;;;;;5034498;28;20098;-66
2021/12/30 00:28:11;;;;;;;63.55;34.55;;;;;;;;;;5037198;28;20129;-67
2021/12/30 00:30:38;;;;;;;61.30;35.92;;;;;;;;;;5035812;28;20140;-66
2021/12/30 00:33:04;;;;;;;65.07;35.92;;;;;;;;;;5034421;28;20029;-67
2021/12/30 00:35:30;;;;;;;73.95;34.10;;;;;;;;;;5034413;28;20053;-66
2021/12/30 00:37:56;;;;;;;63.00;33.38;;;;;;;;;;5034977;28;20041;-69
2021/12/30 00:40:22;;;;;;;109.57;33.75;;;;;;;;;;5042067;28;20041;-66
2021/12/30 00:42:48;;;;;;;74.80;33.67;;;;;;;;;;5042245;28;20361;-65
2021/12/30 00:45:14;;;;;;;87.82;37.67;;;;;;;;;;5039275;28;20040;-67
2021/12/30 00:47:40;;;;;;;141.73;40.40;;;;;;;;;;5034173;28;20044;-68
2021/12/30 00:50:06;;;;;;;94.63;41.53;;;;;;;;;;5034441;28;20021;-70
2021/12/30 00:52:33;;;;;;;127.85;40.03;;;;;;;;;;5051378;28;20106;-68
2021/12/30 00:54:58;;;;;;;153.00;40.08;;;;;;;;;;5048854;28;20403;-69
2021/12/30 00:57:24;;;;;;;159.77;39.20;;;;;;;;;;5045525;28;20043;-67
2021/12/30 00:59:49;;;;;;;58.63;33.33;;;;;;;;;;5054484;28;20025;-67
2021/12/30 01:02:15;;;;;;;79.78;36.00;;;;;;;;;;5053723;28;20476;-68
2021/12/30 01:04:41;;;;;;;66.80;30.92;;;;;;;;;;5053443;28;20467;-71
2021/12/30 01:07:07;;;;;;;56.97;28.60;;;;;;;;;;5051206;28;20051;-70
2021/12/30 01:09:33;;;;;;;61.17;31.33;;;;;;;;;;5042443;28;20031;-68
2021/12/30 01:11:59;;;;;;;63.53;31.35;;;;;;;;;;5034053;28;20037;-68
2021/12/30 01:14:29;;;;;;;54.60;30.70;;;;;;;;;;5033582;28;20025;-68
2021/12/30 01:16:58;;;;;;;68.78;33.00;;;;;;;;;;5023261;28;20054;-67
2021/12/30 01:19:44;;;;;;;60.63;33.53;;;;;;;;;;5014077;28;20030;-68
2021/12/30 01:22:16;;;;;;;69.78;34.67;;;;;;;;;;5014592;28;20370;-70
2021/12/30 01:24:43;;;;;;;59.67;32.25;;;;;;;;;;5014034;28;20041;-66
2021/12/30 01:27:09;;;;;;;66.25;36.67;;;;;;;;;;5013479;28;20105;-68
2021/12/30 01:29:35;;;;;;;66.07;34.78;;;;;;;;;;5013768;28;20092;-66
2021/12/30 01:32:02;;;;;;;61.22;33.90;;;;;;;;;;5013821;28;20081;-67
2021/12/30 01:34:28;;;;;;;76.47;34.53;;;;;;;;;;5013740;28;20076;-67
2021/12/30 01:36:55;;;;;;;84.28;36.53;;;;;;;;;;5013756;28;20462;-66
2021/12/30 01:39:22;;;;;;;124.05;37.85;;;;;;;;;;5013387;28;20141;-66
2021/12/30 01:41:50;;;;;;;69.85;34.58;;;;;;;;;;5014026;28;20021;-66
2021/12/30 01:44:16;;;;;;;69.72;38.60;;;;;;;;;;5014346;28;20072;-66
2021/12/30 01:46:43;;;;;;;68.20;38.83;;;;;;;;;;5012345;28;20483;-65
2021/12/30 01:49:11;;;;;;;68.93;38.90;;;;;;;;;;5013903;28;20034;-66
2021/12/30 01:51:37;;;;;;;64.47;36.28;;;;;;;;;;5013619;28;20113;-66
2021/12/30 01:54:03;;;;;;;58.60;36.25;;;;;;;;;;5012576;28;20077;-67
2021/12/30 01:56:29;;;;;;;57.38;34.88;;;;;;;;;;5013690;28;20148;-66
2021/12/30 01:58:55;;;;;;;53.92;34.45;;;;;;;;;;5013784;28;20026;-65
2021/12/30 02:01:22;;;;;;;54.45;33.75;;;;;;;;;;5013197;28;20028;-66
2021/12/30 02:03:48;;;;;;;55.15;34.53;;;;;;;;;;5013595;28;20045;-65
2021/12/30 02:06:14;;;;;;;50.42;32.47;;;;;;;;;;5013004;28;20018;-66
2021/12/30 02:08:40;;;;;;;53.53;34.03;;;;;;;;;;5012906;28;20054;-66
2021/12/30 02:11:06;;;;;;;49.83;30.25;;;;;;;;;;5012864;28;20033;-66
2021/12/30 02:13:32;;;;;;;43.45;28.30;;;;;;;;;;5012627;28;20034;-66
2021/12/30 02:16:01;;;;;;;40.92;27.45;;;;;;;;;;5012833;28;20373;-66
2021/12/30 02:18:28;;;;;;;39.72;27.85;;;;;;;;;;5012431;28;20088;-66
2021/12/30 02:21:03;;;;;;;40.13;27.08;;;;;;;;;;5013216;28;20026;-65
2021/12/30 02:23:32;;;;;;;40.10;27.55;;;;;;;;;;5012573;28;20045;-65
2021/12/30 02:26:06;;;;;;;40.53;27.58;;;;;;;;;;5013462;28;20026;-66
2021/12/30 02:28:35;;;;;;;41.58;26.40;;;;;;;;;;5017582;28;20053;-66
2021/12/30 02:31:05;;;;;;;38.22;25.90;;;;;;;;;;5032483;28;20499;-66
2021/12/30 02:33:31;;;;;;;40.92;28.05;;;;;;;;;;5031430;28;20057;-66
2021/12/30 02:35:57;;;;;;;42.33;28.70;;;;;;;;;;5032694;28;20056;-66
2021/12/30 02:38:23;;;;;;;41.20;27.90;;;;;;;;;;5032549;28;20034;-66
2021/12/30 02:40:53;;;;;;;41.25;26.42;;;;;;;;;;5036561;28;20511;-65
2021/12/30 02:43:25;;;;;;;38.75;26.10;;;;;;;;;;5032218;28;20041;-66
2021/12/30 02:45:53;;;;;;;36.58;25.80;;;;;;;;;;5031797;28;20557;-65
2021/12/30 02:48:25;;;;;;;37.95;26.40;;;;;;;;;;5032166;28;20083;-66
2021/12/30 02:50:55;;;;;;;37.35;25.65;;;;;;;;;;5032167;28;20034;-67
2021/12/30 02:53:22;;;;;;;35.83;24.17;;;;;;;;;;5031853;28;20400;-66
2021/12/30 02:55:50;;;;;;;34.53;25.63;;;;;;;;;;5031929;28;20104;-69
2021/12/30 02:58:17;;;;;;;32.88;21.98;;;;;;;;;;5031825;28;20029;-65
2021/12/30 03:00:44;;;;;;;32.40;22.77;;;;;;;;;;5031679;28;20053;-68
2021/12/30 03:03:22;;;;;;;29.50;20.90;;;;;;;;;;5031882;28;20033;-65
2021/12/30 03:05:49;;;;;;;30.25;21.98;;;;;;;;;;5035434;28;20596;-67
2021/12/30 03:08:16;;;;;;;33.03;21.63;;;;;;;;;;5031665;28;20052;-66
2021/12/30 03:10:42;;;;;;;30.33;20.80;;;;;;;;;;5031459;28;20026;-66
2021/12/30 03:13:10;;;;;;;26.73;18.67;;;;;;;;;;5032064;28;20033;-65
2021/12/30 03:15:37;;;;;;;26.17;17.40;;;;;;;;;;5031489;28;20448;-66
2021/12/30 03:18:04;;;;;;;23.60;16.80;;;;;;;;;;5032044;28;20110;-65
2021/12/30 03:20:36;;;;;;;24.17;16.08;;;;;;;;;;5032674;28;20026;-67
2021/12/30 03:23:03;;;;;;;23.20;15.82;;;;;;;;;;5031155;28;20233;-66
2021/12/30 03:25:30;;;;;;;23.58;16.73;;;;;;;;;;5045282;28;20025;-65
2021/12/30 03:27:57;;;;;;;21.95;15.85;;;;;;;;;;5051788;28;20057;-68
2021/12/30 03:30:23;;;;;;;25.75;16.60;;;;;;;;;;5031403;28;20029;-65
2021/12/30 03:32:49;;;;;;;22.88;15.98;;;;;;;;;;5031609;28;20029;-66
2021/12/30 03:35:15;;;;;;;22.23;16.75;;;;;;;;;;5031091;28;20056;-65
2021/12/30 03:37:42;;;;;;;21.60;15.60;;;;;;;;;;5034989;28;20064;-66
2021/12/30 03:40:11;;;;;;;20.67;14.93;;;;;;;;;;5032018;28;20029;-64
2021/12/30 03:42:37;;;;;;;20.83;14.77;;;;;;;;;;5031739;28;20045;-64
2021/12/30 03:45:07;;;;;;;20.45;13.82;;;;;;;;;;5034525;28;20033;-65
2021/12/30 03:47:40;;;;;;;16.95;12.68;;;;;;;;;;5050989;28;20033;-65
2021/12/30 03:50:09;;;;;;;19.02;13.05;;;;;;;;;;5051801;28;20095;-66
2021/12/30 03:52:35;;;;;;;16.10;12.35;;;;;;;;;;5051138;28;20054;-65
2021/12/30 03:55:01;;;;;;;17.60;12.40;;;;;;;;;;5044868;28;20048;-66
2021/12/30 03:57:27;;;;;;;16.55;12.10;;;;;;;;;;5048095;28;20032;-64
2021/12/30 03:59:53;;;;;;;16.42;11.27;;;;;;;;;;5030838;28;20038;-65
2021/12/30 04:02:19;;;;;;;17.35;11.73;;;;;;;;;;5031474;28;20030;-66
2021/12/30 04:04:44;;;;;;;21.17;13.23;;;;;;;;;;5031328;28;20121;-65
2021/12/30 04:07:10;;;;;;;17.05;10.38;;;;;;;;;;5035230;28;20073;-65
2021/12/30 04:09:37;;;;;;;21.05;13.43;;;;;;;;;;5031104;28;20510;-65
2021/12/30 04:12:03;;;;;;;21.38;13.57;;;;;;;;;;5031503;28;20021;-67
2021/12/30 04:14:30;;;;;;;17.17;12.50;;;;;;;;;;5030651;28;20041;-67
2021/12/30 04:16:56;;;;;;;20.05;13.82;;;;;;;;;;5031732;28;20017;-66
2021/12/30 04:19:22;;;;;;;19.40;13.27;;;;;;;;;;5031127;28;20404;-67
2021/12/30 04:21:48;;;;;;;21.80;13.90;;;;;;;;;;5031081;28;20026;-66
2021/12/30 04:24:13;;;;;;;18.75;13.35;;;;;;;;;;5030722;28;20048;-67
2021/12/30 04:26:39;;;;;;;23.75;15.45;;;;;;;;;;5030872;28;20025;-65
2021/12/30 04:29:05;;;;;;;20.35;14.48;;;;;;;;;;5034844;28;20179;-66
2021/12/30 04:31:31;;;;;;;24.15;15.50;;;;;;;;;;5030770;28;20190;-65
2021/12/30 04:33:59;;;;;;;23.50;14.38;;;;;;;;;;5030878;28;20033;-66
2021/12/30 04:36:25;;;;;;;22.65;15.27;;;;;;;;;;5030647;28;20566;-66
2021/12/30 04:38:50;;;;;;;20.65;14.38;;;;;;;;;;5030294;28;20042;-65
2021/12/30 04:41:16;;;;;;;21.00;13.60;;;;;;;;;;5034516;28;20519;-66
2021/12/30 04:43:43;;;;;;;22.25;14.77;;;;;;;;;;5033345;28;20040;-67
2021/12/30 04:46:08;;;;;;;23.75;15.13;;;;;;;;;;5034450;28;20026;-66
2021/12/30 04:48:34;;;;;;;25.02;17.08;;;;;;;;;;5020797;28;20025;-66
2021/12/30 04:51:00;;;;;;;21.35;14.85;;;;;;;;;;5014371;28;20037;-65
2021/12/30 04:53:26;;;;;;;20.65;13.85;;;;;;;;;;5013251;28;20034;-65
2021/12/30 04:55:52;;;;;;;21.45;14.85;;;;;;;;;;5013251;28;20030;-66
2021/12/30 04:58:18;;;;;;;24.13;15.90;;;;;;;;;;5014808;28;20042;-66
2021/12/30 05:00:44;;;;;;;21.58;15.40;;;;;;;;;;5026815;28;20137;-66
2021/12/30 05:03:12;;;;;;;22.23;15.45;;;;;;;;;;5034347;28;20173;-65
2021/12/30 05:05:44;;;;;;;24.80;14.35;;;;;;;;;;5034366;28;20101;-65
2021/12/30 05:08:11;;;;;;;22.42;14.60;;;;;;;;;;5033600;28;20292;-66
2021/12/30 05:10:38;;;;;;;18.80;12.77;;;;;;;;;;5032007;28;20057;-71
2021/12/30 05:13:06;;;;;;;20.33;13.27;;;;;;;;;;5021163;28;20026;-66
2021/12/30 05:15:32;;;;;;;18.52;13.00;;;;;;;;;;5014840;28;20033;-70
2021/12/30 05:17:58;;;;;;;19.30;12.68;;;;;;;;;;5017775;28;20365;-66
2021/12/30 05:20:24;;;;;;;18.65;12.52;;;;;;;;;;5029149;28;20108;-66
2021/12/30 05:22:50;;;;;;;17.20;11.48;;;;;;;;;;5032381;28;20092;-69
2021/12/30 05:25:18;;;;;;;19.63;10.02;;;;;;;;;;5034096;28;20100;-69
2021/12/30 05:27:45;;;;;;;14.68;9.60;;;;;;;;;;5044842;28;20060;-71
2021/12/30 05:30:12;;;;;;;13.35;9.45;;;;;;;;;;5054220;28;20552;-70
2021/12/30 05:32:38;;;;;;;12.80;8.88;;;;;;;;;;5052233;28;20169;-68
2021/12/30 05:35:05;;;;;;;15.77;10.43;;;;;;;;;;5054146;28;20168;-69
2021/12/30 05:37:32;;;;;;;16.10;10.38;;;;;;;;;;5053723;28;20095;-70
2021/12/30 05:39:58;;;;;;;18.48;11.25;;;;;;;;;;5051103;28;20017;-70
2021/12/30 05:42:24;;;;;;;15.88;10.45;;;;;;;;;;5054012;28;20610;-69
2021/12/30 05:44:52;;;;;;;15.27;10.23;;;;;;;;;;5054129;28;20033;-71
2021/12/30 05:47:19;;;;;;;13.30;9.50;;;;;;;;;;5052943;28;20045;-71
2021/12/30 05:49:45;;;;;;;14.07;10.15;;;;;;;;;;5052880;28;20489;-70
2021/12/30 05:52:11;;;;;;;14.98;11.13;;;;;;;;;;5053636;28;20116;-70
2021/12/30 05:54:37;;;;;;;20.55;12.25;;;;;;;;;;5054236;28;20430;-70
2021/12/30 05:57:03;;;;;;;18.95;12.13;;;;;;;;;;5053873;28;20032;-71
2021/12/30 05:59:29;;;;;;;18.52;13.00;;;;;;;;;;5049302;28;20081;-70
2021/12/30 06:01:54;;;;;;;21.60;13.10;;;;;;;;;;5024843;28;20049;-70
2021/12/30 06:04:20;;;;;;;19.40;13.35;;;;;;;;;;5014063;28;20021;-71
2021/12/30 06:06:46;;;;;;;20.05;13.02;;;;;;;;;;5014212;28;20507;-72
2021/12/30 06:09:12;;;;;;;21.27;13.13;;;;;;;;;;5013164;28;20026;-73
2021/12/30 06:11:38;;;;;;;22.60;15.20;;;;;;;;;;5013979;28;20030;-69
2021/12/30 06:14:04;;;;;;;24.20;15.73;;;;;;;;;;5012829;28;20311;-71
2021/12/30 06:16:31;;;;;;;28.88;17.23;;;;;;;;;;5012198;28;20096;-70
2021/12/30 06:18:59;;;;;;;24.42;15.98;;;;;;;;;;5013477;28;20548;-70
2021/12/30 06:21:25;;;;;;;22.85;15.05;;;;;;;;;;5013715;28;20049;-73
2021/12/30 06:23:52;;;;;;;22.77;15.15;;;;;;;;;;5013521;28;20026;-71
2021/12/30 06:26:18;;;;;;;22.80;14.40;;;;;;;;;;5013838;28;20034;-71
2021/12/30 06:28:44;;;;;;;22.65;15.32;;;;;;;;;;5013728;28;20053;-71
2021/12/30 06:31:10;;;;;;;26.63;17.00;;;;;;;;;;5013801;28;20062;-71
2021/12/30 06:33:36;;;;;;;29.05;18.25;;;;;;;;;;5013504;28;20034;-70
2021/12/30 06:36:03;;;;;;;29.90;20.05;;;;;;;;;;5013892;28;20088;-71
2021/12/30 06:38:29;;;;;;;28.30;19.48;;;;;;;;;;5023994;28;20022;-70
2021/12/30 06:40:55;;;;;;;28.75;19.25;;;;;;;;;;5014158;28;20117;-70
2021/12/30 06:43:21;;;;;;;26.95;19.20;;;;;;;;;;5013708;28;20029;-70
2021/12/30 06:45:46;;;;;;;25.80;17.92;;;;;;;;;;5013712;28;20052;-71
2021/12/30 06:48:14;;;;;;;26.30;18.08;;;;;;;;;;5013621;28;20055;-70
2021/12/30 06:50:41;;;;;;;26.17;18.10;;;;;;;;;;5013651;28;20496;-70
2021/12/30 06:53:07;;;;;;;29.02;18.80;;;;;;;;;;5013404;28;20022;-71
2021/12/30 06:55:33;;;;;;;22.40;15.20;;;;;;;;;;5013106;28;20480;-69
2021/12/30 06:57:59;;;;;;;17.95;13.43;;;;;;;;;;5013371;28;20068;-71
2021/12/30 07:00:25;;;;;;;22.15;14.70;;;;;;;;;;5013438;28;20038;-71
2021/12/30 07:02:50;;;;;;;25.77;17.77;;;;;;;;;;5012498;28;20026;-71
2021/12/30 07:05:16;;;;;;;28.00;19.73;;;;;;;;;;5013079;28;20058;-71
2021/12/30 07:07:46;;;;;;;28.20;18.65;;;;;;;;;;5011303;28;20029;-72
2021/12/30 07:10:12;;;;;;;24.55;16.30;;;;;;;;;;5012840;28;20026;-72
2021/12/30 07:12:38;;;;;;;22.40;15.30;;;;;;;;;;5011766;28;20084;-71
2021/12/30 07:15:06;;;;;;;21.10;14.30;;;;;;;;;;5012754;28;20121;-70
2021/12/30 07:17:32;;;;;;;21.42;14.88;;;;;;;;;;5012806;28;20028;-70
2021/12/30 07:19:58;;;;;;;21.85;14.68;;;;;;;;;;5013006;28;20109;-71
2021/12/30 07:22:24;;;;;;;18.70;12.15;;;;;;;;;;5013075;28;20525;-71
2021/12/30 07:24:50;;;;;;;16.38;11.23;;;;;;;;;;5012773;28;20125;-71
2021/12/30 07:27:15;;;;;;;18.30;11.82;;;;;;;;;;5011438;28;20151;-70
2021/12/30 07:29:41;;;;;;;21.15;13.02;;;;;;;;;;5032346;28;20092;-71
2021/12/30 07:32:07;;;;;;;18.55;11.52;;;;;;;;;;5032163;28;20037;-71
2021/12/30 07:34:33;;;;;;;15.40;10.50;;;;;;;;;;5032319;28;20124;-69
2021/12/30 07:36:59;;;;;;;15.40;10.60;;;;;;;;;;5032099;28;20109;-71
2021/12/30 07:39:25;;;;;;;15.43;10.50;;;;;;;;;;5032289;28;20030;-71
2021/12/30 07:41:50;;;;;;;21.92;11.00;;;;;;;;;;5031815;28;20084;-70
2021/12/30 07:44:18;;;;;;;20.58;12.35;;;;;;;;;;5030258;28;20117;-74
2021/12/30 07:46:44;;;;;;;17.70;11.80;;;;;;;;;;5031559;28;20034;-72
2021/12/30 07:49:10;;;;;;;15.80;11.52;;;;;;;;;;5031915;28;20034;-72
2021/12/30 07:51:35;;;;;;;17.50;11.40;;;;;;;;;;5031928;28;20410;-71
2021/12/30 07:54:01;;;;;;;15.45;10.70;;;;;;;;;;5032138;28;20445;-72
2021/12/30 07:56:27;;;;;;;16.10;11.05;;;;;;;;;;5032112;28;20021;-72
2021/12/30 07:58:53;;;;;;;17.30;10.80;;;;;;;;;;5031460;28;20033;-71
2021/12/30 08:01:18;;;;;;;22.83;12.80;;;;;;;;;;5029236;28;20504;-73
2021/12/30 08:03:44;;;;;;;23.30;12.82;;;;;;;;;;5021960;28;20083;-72
2021/12/30 08:06:10;;;;;;;31.58;13.63;;;;;;;;;;5011965;28;20029;-72
2021/12/30 08:08:36;;;;;;;27.63;13.65;;;;;;;;;;5012443;28;20034;-70
2021/12/30 08:11:02;;;;;;;19.00;12.55;;;;;;;;;;5012024;28;20028;-70
2021/12/30 08:13:28;;;;;;;25.83;11.05;;;;;;;;;;5013134;28;20124;-71
2021/12/30 08:15:54;;;;;;;28.02;12.13;;;;;;;;;;5045686;28;20053;-71
2021/12/30 08:18:20;;;;;;;20.33;13.05;;;;;;;;;;5055971;28;20029;-73
2021/12/30 08:20:46;;;;;;;28.60;16.80;;;;;;;;;;5055906;28;20023;-73
2021/12/30 08:23:12;;;;;;;34.15;20.77;;;;;;;;;;5055410;28;20033;-70
2021/12/30 08:25:38;;;;;;;29.65;18.35;;;;;;;;;;5055229;28;20032;-73
2021/12/30 08:28:04;;;;;;;36.25;19.60;;;;;;;;;;5054521;28;20045;-73
2021/12/30 08:30:30;;;;;;;71.78;25.00;;;;;;;;;;5055448;28;20045;-71
2021/12/30 08:32:56;;;;;;;91.35;25.63;;;;;;;;;;5049296;28;20025;-71
2021/12/30 08:35:22;;;;;;;51.22;23.05;;;;;;;;;;5034644;28;20452;-70
2021/12/30 08:37:50;;;;;;;89.05;23.08;;;;;;;;;;5035257;28;20609;-71
2021/12/30 08:40:17;;;;;;;59.45;21.27;;;;;;;;;;5035162;28;20033;-70
2021/12/30 08:42:44;;;;;;;80.60;23.58;;;;;;;;;;5034658;28;20044;-72
2021/12/30 08:45:10;;;;;;;28.50;15.80;;;;;;;;;;5035024;28;20467;-71
2021/12/30 08:47:37;;;;;;;112.88;22.25;;;;;;;;;;5035212;28;20452;-72
2021/12/30 08:50:05;;;;;;;40.53;16.35;;;;;;;;;;5034354;28;20475;-71
2021/12/30 08:52:31;;;;;;;47.58;16.80;;;;;;;;;;5034871;28;20033;-71
2021/12/30 08:55:00;;;;;;;52.53;15.75;;;;;;;;;;5034475;28;20040;-71
2021/12/30 08:57:26;;;;;;;29.35;14.80;;;;;;;;;;5034497;28;20044;-71
2021/12/30 08:59:52;;;;;;;26.13;14.00;;;;;;;;;;5034347;28;20100;-72
2021/12/30 09:02:18;;;;;;;20.00;12.80;;;;;;;;;;5034231;28;20080;-73
2021/12/30 09:04:46;;;;;;;19.13;11.60;;;;;;;;;;5034456;28;20033;-72
2021/12/30 09:07:14;;;;;;;29.60;11.48;;;;;;;;;;5034293;28;20048;-72
2021/12/30 09:09:40;;;;;;;12.68;7.00;;;;;;;;;;5034451;28;20026;-70
2021/12/30 09:12:07;;;;;;;9.50;5.85;;;;;;;;;;5036795;28;20059;-71
2021/12/30 09:14:32;;;;;;;20.75;7.13;;;;;;;;;;5043666;28;20028;-70
2021/12/30 09:16:58;;;;;;;36.00;9.38;;;;;;;;;;5025132;28;20108;-71
2021/12/30 09:19:24;;;;;;;18.27;7.13;;;;;;;;;;5034307;28;20029;-72
2021/12/30 09:21:50;;;;;;;11.68;3.90;;;;;;;;;;5034419;28;20067;-72
2021/12/30 09:24:15;;;;;;;10.07;4.22;;;;;;;;;;5033918;28;20033;-72
2021/12/30 09:26:41;;;;;;;4.72;1.70;;;;;;;;;;5046161;28;20334;-73
2021/12/30 09:29:10;;;;;;;11.70;3.97;;;;;;;;;;5033919;28;20045;-73
2021/12/30 09:31:50;;;;;;;5.22;2.78;;;;;;;;;;5034361;28;20403;-71
2021/12/30 09:34:17;;;;;;;5.15;3.22;;;;;;;;;;5033957;28;20030;-71
2021/12/30 09:36:43;;;;;;;3.67;1.70;;;;;;;;;;5033055;28;20032;-71
2021/12/30 09:39:11;;;;;;;3.83;1.27;;;;;;;;;;5033517;28;20033;-70
2021/12/30 09:41:39;;;;;;;14.88;1.98;;;;;;;;;;5033527;28;20026;-72
2021/12/30 09:44:07;;;;;;;3.03;1.05;;;;;;;;;;5033976;28;20404;-71
2021/12/30 09:46:33;;;;;;;4.38;1.30;;;;;;;;;;5033643;28;20022;-70
2021/12/30 09:48:59;;;;;;;4.15;1.27;;;;;;;;;;5033583;28;20045;-71
2021/12/30 09:51:25;;;;;;;4.70;1.55;;;;;;;;;;5033925;28;20021;-71
2021/12/30 09:53:51;;;;;;;11.73;3.22;;;;;;;;;;5033557;28;20044;-73
2021/12/30 09:56:21;;;;;;;1.65;0.90;;;;;;;;;;5033402;28;20052;-72
2021/12/30 09:58:47;;;;;;;3.42;0.95;;;;;;;;;;5033869;28;20052;-71
2021/12/30 10:01:14;;;;;;;6.35;1.48;;;;;;;;;;5033572;28;20035;-71
2021/12/30 10:03:42;;;;;;;2.88;1.00;;;;;;;;;;5048618;28;20037;-73
2021/12/30 10:06:14;;;;;;;2.78;0.95;;;;;;;;;;5033043;28;20025;-73
2021/12/30 10:08:55;;;;;;;8.30;1.75;;;;;;;;;;5032548;28;20567;-73
2021/12/30 10:11:22;;;;;;;2.95;1.50;;;;;;;;;;5032959;28;20025;-72
2021/12/30 10:14:02;;;;;;;8.25;2.10;;;;;;;;;;5032626;28;20091;-71
2021/12/30 10:16:28;;;;;;;1.08;0.77;;;;;;;;;;5032966;28;20092;-73
2021/12/30 10:19:00;;;;;;;2.58;1.00;;;;;;;;;;5032519;28;20163;-72
2021/12/30 10:21:40;;;;;;;3.58;1.67;;;;;;;;;;5032930;28;20084;-72
2021/12/30 10:24:09;;;;;;;3.45;1.20;;;;;;;;;;5033353;28;20040;-72
2021/12/30 10:26:52;;;;;;;2.28;1.23;;;;;;;;;;5032542;28;20392;-73
2021/12/30 10:29:18;;;;;;;2.40;1.25;;;;;;;;;;5031618;28;20389;-73
2021/12/30 10:31:44;;;;;;;4.47;2.58;;;;;;;;;;5032533;28;20037;-73
2021/12/30 10:34:11;;;;;;;3.00;1.88;;;;;;;;;;5032868;28;20044;-74
2021/12/30 10:36:57;;;;;;;5.53;2.30;;;;;;;;;;5031523;28;20026;-75
2021/12/30 10:39:29;;;;;;;2.80;1.33;;;;;;;;;;5052005;28;20384;-73
2021/12/30 10:42:09;;;;;;;3.92;1.85;;;;;;;;;;5045138;28;20075;-72
2021/12/30 10:45:03;;;;;;;7.05;3.90;;;;;;;;;;5032754;28;20054;-74
2021/12/30 10:47:32;;;;;;;6.85;3.10;;;;;;;;;;5038742;28;20053;-71
2021/12/30 10:50:09;;;;;;;4.57;2.22;;;;;;;;;;5037743;28;20025;-73
2021/12/30 10:52:55;;;;;;;6.00;2.10;;;;;;;;;;5033543;28;20492;-77
2021/12/30 10:55:23;;;;;;;8.48;1.92;;;;;;;;;;5031933;28;20041;-73
2021/12/30 10:57:50;;;;;;;3.58;1.40;;;;;;;;;;5032243;28;20030;-74
2021/12/30 11:00:34;;;;;;;5.82;1.50;;;;;;;;;;5032416;28;20137;-72
2021/12/30 11:03:26;;;;;;;3.15;1.30;;;;;;;;;;5032237;28;20044;-74
2021/12/30 11:06:12;;;;;;;9.95;2.65;;;;;;;;;;5032278;28;20041;-75
2021/12/30 11:08:37;;;;;;;2.88;1.48;;;;;;;;;;5032319;28;20049;-71
2021/12/30 11:11:22;;;;;;;3.95;1.23;;;;;;;;;;5031885;28;20090;-70
2021/12/30 11:14:03;;;;;;;2.67;1.40;;;;;;;;;;5032313;28;20034;-73
2021/12/30 11:16:30;;;;;;;4.70;1.33;;;;;;;;;;5031760;28;20025;-73
2021/12/30 11:18:56;;;;;;;2.58;1.50;;;;;;;;;;5031992;28;20025;-72
2021/12/30 11:21:57;;;;;;;4.25;1.30;;;;;;;;;;5032342;28;20061;-73
2021/12/30 11:24:25;;;;;;;6.45;1.63;;;;;;;;;;5009095;28;20053;-73
2021/12/30 11:26:51;;;;;;;3.97;1.30;;;;;;;;;;5032826;28;20025;-72
2021/12/30 11:29:18;;;;;;;5.80;1.50;;;;;;;;;;5029865;28;20041;-71
2021/12/30 11:31:43;;;;;;;4.03;1.50;;;;;;;;;;5032331;28;20448;-72
2021/12/30 11:34:09;;;;;;;3.22;1.30;;;;;;;;;;5047840;28;20166;-72
2021/12/30 11:36:35;;;;;;;2.13;0.95;;;;;;;;;;5032122;28;20056;-71
2021/12/30 11:39:10;;;;;;;1.98;1.30;;;;;;;;;;5032125;28;20120;-73
2021/12/30 11:41:36;;;;;;;3.00;1.65;;;;;;;;;;5032188;28;20476;-75
2021/12/30 11:44:02;;;;;;;2.97;1.35;;;;;;;;;;5032266;28;20148;-71
2021/12/30 11:46:37;;;;;;;4.65;1.60;;;;;;;;;;5031971;28;20026;-71
2021/12/30 11:49:04;;;;;;;5.63;1.80;;;;;;;;;;5031985;28;20104;-72
2021/12/30 11:51:51;;;;;;;5.05;2.00;;;;;;;;;;5032054;28;20024;-71
2021/12/30 11:54:32;;;;;;;2.47;1.48;;;;;;;;;;5031888;28;20029;-70
2021/12/30 11:57:24;;;;;;;5.45;2.00;;;;;;;;;;5032112;28;20402;-71
2021/12/30 11:59:50;;;;;;;2.38;1.30;;;;;;;;;;5031934;28;20034;-72
2021/12/30 12:02:45;;;;;;;2.15;1.10;;;;;;;;;;5031791;28;20075;-71
2021/12/30 12:05:40;;;;;;;4.10;1.80;;;;;;;;;;5022836;28;20045;-72
2021/12/30 12:08:08;;;;;;;2.53;1.67;;;;;;;;;;5030799;28;20048;-71
2021/12/30 12:10:35;;;;;;;2.22;1.50;;;;;;;;;;5031712;28;20072;-71
2021/12/30 12:13:32;;;;;;;5.43;1.42;;;;;;;;;;5031622;28;20048;-70
2021/12/30 12:15:58;;;;;;;3.80;1.85;;;;;;;;;;5031318;28;20160;-70
2021/12/30 12:18:25;;;;;;;2.50;1.80;;;;;;;;;;5031271;28;20033;-71
2021/12/30 12:20:53;;;;;;;3.10;1.92;;;;;;;;;;5031772;28;20116;-72
2021/12/30 12:23:48;;;;;;;3.72;1.70;;;;;;;;;;5030569;28;20147;-72
2021/12/30 12:26:21;;;;;;;4.45;1.75;;;;;;;;;;5024195;28;20052;-71
2021/12/30 12:28:48;;;;;;;4.00;1.80;;;;;;;;;;5029031;28;20080;-71
2021/12/30 12:31:15;;;;;;;5.10;1.67;;;;;;;;;;5042595;28;20041;-73
2021/12/30 12:33:42;;;;;;;2.90;1.70;;;;;;;;;;5023025;28;20026;-71
2021/12/30 12:36:32;;;;;;;6.60;2.00;;;;;;;;;;5018484;28;20069;-70
2021/12/30 12:38:57;;;;;;;3.60;1.80;;;;;;;;;;5016843;28;20037;-70
2021/12/30 12:41:31;;;;;;;2.60;1.48;;;;;;;;;;5031247;28;20036;-71
2021/12/30 12:44:04;;;;;;;3.90;1.85;;;;;;;;;;5031161;28;20109;-71
2021/12/30 12:46:47;;;;;;;4.05;2.13;;;;;;;;;;5031026;28;20029;-71
2021/12/30 12:49:15;;;;;;;5.97;2.27;;;;;;;;;;5030093;28;20064;-72
2021/12/30 12:51:55;;;;;;;2.92;1.60;;;;;;;;;;5030440;28;20030;-73
2021/12/30 12:54:48;;;;;;;6.28;2.20;;;;;;;;;;5031376;28;20080;-70
2021/12/30 12:57:17;;;;;;;3.27;1.53;;;;;;;;;;5027544;28;20047;-70
2021/12/30 12:59:43;;;;;;;4.57;1.85;;;;;;;;;;5045820;28;20025;-74
2021/12/30 13:02:12;;;;;;;6.97;2.20;;;;;;;;;;5033469;28;20123;-71
2021/12/30 13:04:39;;;;;;;7.28;2.75;;;;;;;;;;5034474;28;20049;-71
2021/12/30 13:07:33;;;;;;;7.10;2.17;;;;;;;;;;5033304;28;20079;-72
2021/12/30 13:09:58;;;;;;;;;;;;;;;;;;5014184;28;20140;-70
2021/12/30 13:12:24;;;;;;;3.45;1.60;;;;;;;;;;5014292;28;20288;-72
2021/12/30 13:14:50;;;;;;;4.05;1.70;;;;;;;;;;5013184;28;20033;-73
2021/12/30 13:17:16;;;;;;;4.85;2.10;;;;;;;;;;5014933;28;20030;-69
2021/12/30 13:19:45;;;;;;;4.65;1.75;;;;;;;;;;5014695;28;20485;-70
2021/12/30 13:22:16;;;;;;;3.53;1.70;;;;;;;;;;5014699;28;20026;-69
2021/12/30 13:24:57;;;;;;;6.32;2.08;;;;;;;;;;5014721;28;20033;-70
2021/12/30 13:27:47;;;;;;;7.65;2.38;;;;;;;;;;5014591;28;20037;-71
2021/12/30 13:30:18;;;;;;;5.60;2.40;;;;;;;;;;5014565;28;20041;-70
2021/12/30 13:32:47;;;;;;;5.28;1.73;;;;;;;;;;5014699;28;20069;-71
2021/12/30 13:35:18;;;;;;;3.03;1.83;;;;;;;;;;5013080;28;20034;-71
2021/12/30 13:38:00;;;;;;;4.05;2.22;;;;;;;;;;5013509;28;20034;-70
2021/12/30 13:40:33;;;;;;;2.97;1.88;;;;;;;;;;5014865;28;20116;-71
2021/12/30 13:43:16;;;;;;;5.05;1.83;;;;;;;;;;5014822;28;20034;-70
2021/12/30 13:45:54;;;;;;;5.05;1.60;;;;;;;;;;5014551;28;20026;-73
2021/12/30 13:48:22;;;;;;;4.40;2.25;;;;;;;;;;5014736;28;20431;-72
2021/12/30 13:51:02;;;;;;;5.68;2.40;;;;;;;;;;5037682;28;20111;-73
2021/12/30 13:53:30;;;;;;;5.35;2.50;;;;;;;;;;5054483;28;20037;-70
2021/12/30 13:55:59;;;;;;;4.40;2.28;;;;;;;;;;5053947;28;20501;-69
2021/12/30 13:58:30;;;;;;;5.35;2.30;;;;;;;;;;5054008;28;20107;-72
2021/12/30 14:01:11;;;;;;;5.05;2.25;;;;;;;;;;5054014;28;20071;-71
2021/12/30 14:03:42;;;;;;;3.58;2.00;;;;;;;;;;5053100;28;20040;-73
2021/12/30 14:06:15;;;;;;;3.65;2.22;;;;;;;;;;5053243;28;20128;-69
2021/12/30 14:08:50;;;;;;;7.20;2.30;;;;;;;;;;5061037;28;20514;-70
2021/12/30 14:11:16;;;;;;;4.82;2.58;;;;;;;;;;5033374;28;20033;-70
2021/12/30 14:13:45;;;;;;;3.25;2.25;;;;;;;;;;5033724;28;20177;-72
2021/12/30 14:16:23;;;;;;;4.95;2.30;;;;;;;;;;5033265;28;20116;-69
2021/12/30 14:18:59;;;;;;;5.15;2.10;;;;;;;;;;5033171;28;20043;-69
2021/12/30 14:21:29;;;;;;;6.35;2.40;;;;;;;;;;5033312;28;20113;-72
2021/12/30 14:24:07;;;;;;;3.05;1.90;;;;;;;;;;5033421;28;20067;-69
2021/12/30 14:26:33;;;;;;;4.50;2.75;;;;;;;;;;5033257;28;20034;-69
2021/12/30 14:29:17;;;;;;;4.20;2.15;;;;;;;;;;5032987;28;20500;-68
2021/12/30 14:31:53;;;;;;;4.43;2.58;;;;;;;;;;5033331;28;20029;-69
2021/12/30 14:34:24;;;;;;;4.50;2.38;;;;;;;;;;5032517;28;20071;-70
2021/12/30 14:37:08;;;;;;;5.50;2.75;;;;;;;;;;5033081;28;20040;-69